createdAt,value
2019-01-13T00:00:16.036Z,2.37
2019-01-13T00:03:04.442Z,2.50
2019-01-13T00:05:46.103Z,2.60
2019-01-13T00:08:34.133Z,2.83
2019-01-13T00:11:15.926Z,2.87
2019-01-13T00:14:03.942Z,2.27
2019-01-13T00:16:45.753Z,5.30
2019-01-13T00:19:33.836Z,2.22
2019-01-13T00:22:15.360Z,2.65
2019-01-13T00:25:03.486Z,2.20
2019-01-13T00:27:45.581Z,3.75
2019-01-13T00:30:33.571Z,2.50
2019-01-13T00:33:15.500Z,3.67
2019-01-13T00:36:03.511Z,2.90
2019-01-13T00:38:45.530Z,4.35
2019-01-13T00:41:33.911Z,3.25
2019-01-13T00:44:16.836Z,3.17
2019-01-13T00:47:04.835Z,4.83
2019-01-13T00:49:46.569Z,3.87
2019-01-13T00:52:34.623Z,4.17
2019-01-13T00:55:22.583Z,3.65
2019-01-13T00:58:10.649Z,2.90
2019-01-13T01:00:52.613Z,3.20
2019-01-13T01:03:40.720Z,3.72
2019-01-13T01:06:22.508Z,3.35
2019-01-13T01:09:10.549Z,3.70
2019-01-13T01:11:52.321Z,3.55
2019-01-13T01:14:40.316Z,3.42
2019-01-13T01:17:28.340Z,3.27
2019-01-13T01:20:11.466Z,2.95
2019-01-13T01:22:59.462Z,4.35
2019-01-13T01:25:40.415Z,3.40
2019-01-13T01:28:21.873Z,3.20
2019-01-13T01:31:03.482Z,6.30
2019-01-13T01:33:51.517Z,8.05
2019-01-13T01:36:33.132Z,3.08
2019-01-13T01:39:21.177Z,3.62
2019-01-13T01:42:03.053Z,3.75
2019-01-13T01:44:51.113Z,3.58
2019-01-13T01:47:19.812Z,5.95
2019-01-13T01:50:28.508Z,3.60
2019-01-13T01:53:09.717Z,5.65
2019-01-13T01:55:57.742Z,4.58
2019-01-13T01:58:39.796Z,6.33
2019-01-13T02:01:27.834Z,4.10
2019-01-13T02:04:09.156Z,4.62
2019-01-13T02:06:57.321Z,4.22
2019-01-13T02:09:38.972Z,5.37
2019-01-13T02:12:27.036Z,4.10
2019-01-13T02:15:10.719Z,4.70
2019-01-13T02:17:58.936Z,4.80
2019-01-13T02:20:40.808Z,4.62
2019-01-13T02:23:29.087Z,5.25
2019-01-13T02:26:12.772Z,4.22
2019-01-13T02:29:00.908Z,5.17
2019-01-13T02:31:43.215Z,5.00
2019-01-13T02:34:31.392Z,6.00
2019-01-13T02:37:13.462Z,5.20
2019-01-13T02:40:01.500Z,6.20
2019-01-13T02:42:43.534Z,6.53
2019-01-13T02:45:31.540Z,6.33
2019-01-13T02:48:13.207Z,6.28
2019-01-13T02:51:01.243Z,9.65
2019-01-13T02:53:49.181Z,7.00
2019-01-13T02:56:37.222Z,9.60
2019-01-13T02:59:19.040Z,6.50
2019-01-13T03:02:07.143Z,8.10
2019-01-13T03:04:49.093Z,7.35
2019-01-13T03:07:37.077Z,7.83
2019-01-13T03:10:19.956Z,7.53
2019-01-13T03:13:07.906Z,7.90
2019-01-13T03:15:49.671Z,11.80
2019-01-13T03:18:37.698Z,10.25
2019-01-13T03:21:19.348Z,8.50
2019-01-13T03:24:07.395Z,10.28
2019-01-13T03:26:49.185Z,7.83
2019-01-13T03:29:37.228Z,7.45
2019-01-13T03:32:19.388Z,8.73
2019-01-13T03:35:07.553Z,8.03
2019-01-13T03:37:49.497Z,7.35
2019-01-13T03:40:37.566Z,9.35
2019-01-13T03:43:19.688Z,8.55
2019-01-13T03:46:07.674Z,9.80
2019-01-13T03:48:48.995Z,8.13
2019-01-13T03:51:37.003Z,8.65
2019-01-13T03:54:18.231Z,9.43
2019-01-13T03:57:06.226Z,11.15
2019-01-13T03:59:47.653Z,7.50
2019-01-13T04:02:16.420Z,10.32
2019-01-13T04:05:25.126Z,7.92
2019-01-13T04:08:13.131Z,16.60
2019-01-13T04:10:55.017Z,7.78
2019-01-13T04:13:43.017Z,9.30
2019-01-13T04:16:24.989Z,8.40
2019-01-13T04:19:13.041Z,6.92
2019-01-13T04:21:54.938Z,8.70
2019-01-13T04:24:23.852Z,7.75
2019-01-13T04:27:11.885Z,7.90
2019-01-13T04:29:59.927Z,11.03
2019-01-13T04:32:47.977Z,7.72
2019-01-13T04:35:29.812Z,8.00
2019-01-13T04:38:17.836Z,10.90
2019-01-13T04:40:59.385Z,8.68
2019-01-13T04:43:47.434Z,6.90
2019-01-13T04:46:29.307Z,6.72
2019-01-13T04:49:17.350Z,10.88
2019-01-13T04:52:05.350Z,7.50
2019-01-13T04:54:47.211Z,10.18
2019-01-13T04:57:35.260Z,9.98
2019-01-13T05:00:18.070Z,10.93
2019-01-13T05:03:06.140Z,9.65
2019-01-13T05:05:47.725Z,16.97
2019-01-13T05:08:35.910Z,6.92
2019-01-13T05:11:17.329Z,12.80
2019-01-13T05:14:05.385Z,11.53
2019-01-13T05:16:46.733Z,14.18
2019-01-13T05:19:34.697Z,6.83
2019-01-13T05:22:16.733Z,7.22
2019-01-13T05:25:05.597Z,11.85
2019-01-13T05:27:47.707Z,11.00
2019-01-13T05:30:35.746Z,6.72
2019-01-13T05:33:17.803Z,12.07
2019-01-13T05:35:59.033Z,7.10
2019-01-13T05:38:47.027Z,7.95
2019-01-13T05:41:29.025Z,13.70
2019-01-13T05:44:17.040Z,6.05
2019-01-13T05:47:05.100Z,7.78
2019-01-13T05:49:46.666Z,7.00
2019-01-13T05:52:34.785Z,7.00
2019-01-13T05:55:16.876Z,6.72
2019-01-13T05:58:04.833Z,6.47
2019-01-13T06:00:46.733Z,6.65
2019-01-13T06:03:34.809Z,6.37
2019-01-13T06:06:16.756Z,8.20
2019-01-13T06:09:18.838Z,6.67
2019-01-13T06:12:00.406Z,6.90
2019-01-13T06:14:48.537Z,5.67
2019-01-13T06:17:30.612Z,5.62
2019-01-13T06:20:19.476Z,9.25
2019-01-13T06:23:00.899Z,6.05
2019-01-13T06:25:49.085Z,6.53
2019-01-13T06:28:31.531Z,7.03
2019-01-13T06:31:19.634Z,6.25
2019-01-13T06:34:01.097Z,4.85
2019-01-13T06:36:49.122Z,11.93
2019-01-13T06:39:31.241Z,5.65
2019-01-13T06:42:19.252Z,5.35
2019-01-13T06:45:00.489Z,7.22
2019-01-13T06:47:48.525Z,7.50
2019-01-13T06:50:30.272Z,7.62
2019-01-13T06:53:18.276Z,9.03
2019-01-13T06:56:00.260Z,6.90
2019-01-13T06:58:28.949Z,7.15
2019-01-13T07:01:17.007Z,6.85
2019-01-13T07:03:59.272Z,13.40
2019-01-13T07:06:47.326Z,10.70
2019-01-13T07:09:29.411Z,10.45
2019-01-13T07:12:17.447Z,8.93
2019-01-13T07:14:58.794Z,9.45
2019-01-13T07:17:47.064Z,9.95
2019-01-13T07:20:28.946Z,10.50
2019-01-13T07:22:57.762Z,9.08
2019-01-13T07:25:45.861Z,17.07
2019-01-13T07:28:33.965Z,9.50
2019-01-13T07:31:15.560Z,12.90
2019-01-13T07:34:03.832Z,11.65
2019-01-13T07:36:45.373Z,11.30
2019-01-13T07:39:33.386Z,8.85
2019-01-13T07:42:15.168Z,17.45
2019-01-13T07:45:03.297Z,14.98
2019-01-13T07:47:44.725Z,12.18
2019-01-13T07:50:32.872Z,11.55
2019-01-13T07:53:14.999Z,14.45
2019-01-13T07:56:02.988Z,9.93
2019-01-13T07:58:44.488Z,11.33
2019-01-13T08:01:32.491Z,11.88
2019-01-13T08:04:14.498Z,11.70
2019-01-13T08:07:02.515Z,19.82
2019-01-13T08:09:44.139Z,17.23
2019-01-13T08:12:32.142Z,9.98
2019-01-13T08:15:19.934Z,17.90
2019-01-13T08:18:08.010Z,10.23
2019-01-13T08:20:50.249Z,12.82
2019-01-13T08:23:38.285Z,13.53
2019-01-13T08:26:20.192Z,10.85
2019-01-13T08:29:08.213Z,12.80
2019-01-13T08:31:37.021Z,13.45
2019-01-13T08:34:24.964Z,11.80
2019-01-13T08:37:06.312Z,7.95
2019-01-13T08:39:54.236Z,10.25
2019-01-13T08:42:36.241Z,6.47
2019-01-13T08:45:24.281Z,8.83
2019-01-13T08:48:06.014Z,5.65
2019-01-13T08:50:54.020Z,6.92
2019-01-13T08:53:35.238Z,5.33
2019-01-13T08:56:23.238Z,5.08
2019-01-13T08:59:05.356Z,3.85
2019-01-13T09:01:53.355Z,3.40
2019-01-13T09:04:41.407Z,3.08
2019-01-13T09:07:23.517Z,7.58
2019-01-13T09:10:32.236Z,5.95
2019-01-13T09:13:13.698Z,2.75
2019-01-13T09:16:01.759Z,2.52
2019-01-13T09:18:43.603Z,2.15
2019-01-13T09:21:31.642Z,3.90
2019-01-13T09:24:13.589Z,1.95
2019-01-13T09:27:01.577Z,2.37
2019-01-13T09:29:43.552Z,2.55
2019-01-13T09:32:31.598Z,1.30
2019-01-13T09:35:12.813Z,1.50
2019-01-13T09:37:41.692Z,1.62
2019-01-13T09:40:29.694Z,1.57
2019-01-13T09:43:17.857Z,2.62
2019-01-13T09:45:59.530Z,1.60
2019-01-13T09:48:41.678Z,1.42
2019-01-13T09:51:29.733Z,1.57
2019-01-13T09:54:11.946Z,1.30
2019-01-13T09:56:59.999Z,1.42
2019-01-13T09:59:41.758Z,1.65
2019-01-13T10:02:29.872Z,3.30
2019-01-13T10:05:11.516Z,1.00
2019-01-13T10:07:53.507Z,1.60
2019-01-13T10:10:41.112Z,1.40
2019-01-13T10:13:29.153Z,1.22
2019-01-13T10:16:10.728Z,1.25
2019-01-13T10:18:58.779Z,1.32
2019-01-13T10:21:40.602Z,2.30
2019-01-13T10:24:22.470Z,1.57
2019-01-13T10:27:10.525Z,1.77
2019-01-13T10:29:39.229Z,7.03
2019-01-13T10:32:27.218Z,1.30
2019-01-13T10:35:10.026Z,1.55
2019-01-13T10:37:58.041Z,2.35
2019-01-13T10:40:39.867Z,4.12
2019-01-13T10:43:27.865Z,1.45
2019-01-13T10:46:13.792Z,1.47
2019-01-13T10:48:54.932Z,1.67
2019-01-13T10:51:43.033Z,1.42
2019-01-13T10:54:31.043Z,1.37
2019-01-13T10:57:19.080Z,3.20
2019-01-13T11:00:00.355Z,2.55
2019-01-13T11:02:48.483Z,1.82
2019-01-13T11:05:30.559Z,2.33
2019-01-13T11:08:18.485Z,1.75
2019-01-13T11:11:00.365Z,1.67
2019-01-13T11:13:29.129Z,1.32
2019-01-13T11:16:17.056Z,2.22
2019-01-13T11:19:05.081Z,1.90
2019-01-13T11:21:47.019Z,1.90
2019-01-13T11:24:35.041Z,2.05
2019-01-13T11:27:16.652Z,1.95
2019-01-13T11:30:25.515Z,1.72
2019-01-13T11:33:09.631Z,1.52
2019-01-13T11:35:57.268Z,2.12
2019-01-13T11:38:39.370Z,1.82
2019-01-13T11:41:27.408Z,1.20
2019-01-13T11:44:08.874Z,4.80
2019-01-13T11:46:56.857Z,2.35
2019-01-13T11:49:38.728Z,1.27
2019-01-13T11:52:26.662Z,1.50
2019-01-13T11:55:15.519Z,1.45
2019-01-13T11:57:56.821Z,1.15
2019-01-13T12:00:44.828Z,1.82
2019-01-13T12:03:26.937Z,1.75
2019-01-13T12:06:14.942Z,2.10
2019-01-13T12:08:56.854Z,1.77
2019-01-13T12:11:44.905Z,1.90
2019-01-13T12:14:26.766Z,1.80
2019-01-13T12:17:09.020Z,2.30
2019-01-13T12:19:57.028Z,1.62
2019-01-13T12:22:38.738Z,1.90
2019-01-13T12:25:26.753Z,1.50
2019-01-13T12:28:08.684Z,1.90
2019-01-13T12:30:56.726Z,1.60
2019-01-13T12:33:44.763Z,1.72
2019-01-13T12:36:26.801Z,2.67
2019-01-13T12:39:14.922Z,1.42
2019-01-13T12:41:57.010Z,2.10
2019-01-13T12:44:45.061Z,1.62
2019-01-13T12:47:27.016Z,1.55
2019-01-13T12:50:29.110Z,1.55
2019-01-13T12:53:10.958Z,1.75
2019-01-13T12:55:58.979Z,4.83
2019-01-13T12:58:47.014Z,3.30
2019-01-13T13:01:28.225Z,2.55
2019-01-13T13:04:16.276Z,3.17
2019-01-13T13:06:57.810Z,1.30
2019-01-13T13:09:45.725Z,2.27
2019-01-13T13:12:27.549Z,4.53
2019-01-13T13:15:15.544Z,1.80
2019-01-13T13:17:57.001Z,4.37
2019-01-13T13:20:45.009Z,2.35
2019-01-13T13:23:26.700Z,1.80
2019-01-13T13:26:14.748Z,1.90
2019-01-13T13:28:56.518Z,1.60
2019-01-13T13:31:44.568Z,1.62
2019-01-13T13:34:26.428Z,1.75
2019-01-13T13:37:14.494Z,1.90
2019-01-13T13:39:55.777Z,1.52
2019-01-13T13:42:43.796Z,1.90
2019-01-13T13:45:31.854Z,1.70
2019-01-13T13:48:13.681Z,1.65
2019-01-13T13:50:42.538Z,1.70
2019-01-13T13:53:30.561Z,1.65
2019-01-13T13:56:18.600Z,1.30
2019-01-13T13:59:00.215Z,1.62
2019-01-13T14:01:48.276Z,1.82
2019-01-13T14:04:29.968Z,1.77
2019-01-13T14:07:17.944Z,1.90
2019-01-13T14:09:59.680Z,1.47
2019-01-13T14:12:47.728Z,1.98
2019-01-13T14:15:29.197Z,1.82
2019-01-13T14:18:11.044Z,6.15
2019-01-13T14:20:59.102Z,3.87
2019-01-13T14:23:40.793Z,1.90
2019-01-13T14:26:28.795Z,1.67
2019-01-13T14:29:10.645Z,1.40
2019-01-13T14:31:58.589Z,3.30
2019-01-13T14:34:40.610Z,1.50
2019-01-13T14:37:28.613Z,1.82
2019-01-13T14:40:14.835Z,2.75
2019-01-13T14:43:02.828Z,1.72
2019-01-13T14:45:44.125Z,1.45
2019-01-13T14:48:32.135Z,1.92
2019-01-13T14:51:13.963Z,5.08
2019-01-13T14:53:55.955Z,2.65
2019-01-13T14:56:44.012Z,4.65
2019-01-13T14:59:32.056Z,1.47
2019-01-13T15:02:13.477Z,1.82
2019-01-13T15:05:01.533Z,2.25
2019-01-13T15:07:43.051Z,2.92
2019-01-13T15:10:31.104Z,4.70
2019-01-13T15:13:12.214Z,1.62
2019-01-13T15:16:00.341Z,1.87
2019-01-13T15:18:42.199Z,1.92
2019-01-13T15:21:24.135Z,3.35
2019-01-13T15:24:12.133Z,4.30
2019-01-13T15:26:54.172Z,1.82
2019-01-13T15:29:42.286Z,1.60
2019-01-13T15:32:23.466Z,2.17
2019-01-13T15:35:11.596Z,1.70
2019-01-13T15:37:59.572Z,1.70
2019-01-13T15:40:41.556Z,3.25
2019-01-13T15:43:29.552Z,2.58
2019-01-13T15:46:11.280Z,1.87
2019-01-13T15:48:59.747Z,1.85
2019-01-13T15:51:41.782Z,3.10
2019-01-13T15:54:29.877Z,1.95
2019-01-13T15:57:11.833Z,3.92
2019-01-13T15:59:54.730Z,2.40
2019-01-13T16:02:42.724Z,1.70
2019-01-13T16:05:24.587Z,2.20
2019-01-13T16:08:12.613Z,2.65
2019-01-13T16:10:53.834Z,2.10
2019-01-13T16:13:35.906Z,2.27
2019-01-13T16:16:23.893Z,2.70
2019-01-13T16:19:05.526Z,3.40
2019-01-13T16:21:53.529Z,2.75
2019-01-13T16:24:34.577Z,2.20
2019-01-13T16:27:16.201Z,2.65
2019-01-13T16:30:18.566Z,2.50
2019-01-13T16:33:00.529Z,4.97
2019-01-13T16:35:48.584Z,2.55
2019-01-13T16:38:36.648Z,5.60
2019-01-13T16:41:18.478Z,2.37
2019-01-13T16:44:06.511Z,2.27
2019-01-13T16:46:47.643Z,2.25
2019-01-13T16:49:35.654Z,2.40
2019-01-13T16:52:17.233Z,2.77
2019-01-13T16:55:19.878Z,1.98
2019-01-13T16:58:01.963Z,1.80
2019-01-13T17:00:49.968Z,3.10
2019-01-13T17:03:38.076Z,2.60
2019-01-13T17:06:19.228Z,2.27
2019-01-13T17:12:02.201Z,2.00
2019-01-13T17:14:50.338Z,2.20
2019-01-13T17:17:31.617Z,2.55
2019-01-13T17:20:20.760Z,2.52
2019-01-13T17:23:02.343Z,2.20
2019-01-13T17:25:50.350Z,2.10
2019-01-13T17:28:31.647Z,2.35
2019-01-13T17:31:00.396Z,4.28
2019-01-13T17:33:48.567Z,2.87
2019-01-13T17:36:30.045Z,2.27
2019-01-13T17:39:18.150Z,2.95
2019-01-13T17:41:59.378Z,3.00
2019-01-13T17:44:47.423Z,5.00
2019-01-13T17:47:28.668Z,2.55
2019-01-13T17:50:36.001Z,4.72
2019-01-13T17:53:17.850Z,2.58
2019-01-13T17:55:59.793Z,3.05
2019-01-13T17:58:47.870Z,3.27
2019-01-13T18:01:29.725Z,3.00
2019-01-13T18:04:11.699Z,2.80
2019-01-13T18:06:59.708Z,3.08
2019-01-13T18:09:41.769Z,2.75
2019-01-13T18:12:29.798Z,2.40
2019-01-13T18:15:11.829Z,1.92
2019-01-13T18:17:59.850Z,1.75
2019-01-13T18:20:41.984Z,1.95
2019-01-13T18:23:30.151Z,2.00
2019-01-13T18:26:12.098Z,2.25
2019-01-13T18:29:00.154Z,2.92
2019-01-13T18:31:42.869Z,1.70
2019-01-13T18:34:30.848Z,2.27
2019-01-13T18:37:12.462Z,2.30
2019-01-13T18:40:00.571Z,2.08
2019-01-13T18:42:42.447Z,2.30
2019-01-13T18:45:30.485Z,2.05
2019-01-13T18:48:13.513Z,1.35
2019-01-13T18:50:55.369Z,1.92
2019-01-13T18:53:43.377Z,2.33
2019-01-13T18:56:25.739Z,3.17
2019-01-13T18:59:13.701Z,2.17
2019-01-13T19:01:55.560Z,2.72
2019-01-13T19:04:43.585Z,2.02
2019-01-13T19:07:31.623Z,2.27
2019-01-13T19:10:21.585Z,2.10
2019-01-13T19:13:21.586Z,2.20
2019-01-13T19:16:03.278Z,2.27
2019-01-13T19:18:44.766Z,2.62
2019-01-13T19:21:32.804Z,2.52
2019-01-13T19:24:14.446Z,2.50
2019-01-13T19:27:02.469Z,4.60
2019-01-13T19:29:44.791Z,7.12
2019-01-13T19:32:32.857Z,3.15
2019-01-13T19:35:15.759Z,2.98
2019-01-13T19:38:03.781Z,3.50
2019-01-13T19:40:45.352Z,4.35
2019-01-13T19:43:33.356Z,2.83
2019-01-13T19:46:15.208Z,2.58
2019-01-13T19:49:03.235Z,2.42
2019-01-13T19:51:45.434Z,2.90
2019-01-13T19:54:33.493Z,2.33
2019-01-13T19:57:15.386Z,2.17
2019-01-13T20:00:24.053Z,2.30
2019-01-13T20:03:06.027Z,3.15
2019-01-13T20:05:53.989Z,2.42
2019-01-13T20:08:35.992Z,2.40
2019-01-13T20:11:24.042Z,2.10
2019-01-13T20:14:05.300Z,2.50
2019-01-13T20:16:53.227Z,3.85
2019-01-13T20:19:37.796Z,2.37
2019-01-13T20:22:19.471Z,2.20
2019-01-13T20:25:28.197Z,2.75
2019-01-13T20:28:09.545Z,2.17
2019-01-13T20:30:57.505Z,3.05
2019-01-13T20:33:39.445Z,2.85
2019-01-13T20:36:27.487Z,2.37
2019-01-13T20:39:10.194Z,2.22
2019-01-13T20:41:58.152Z,2.30
2019-01-13T20:44:46.227Z,2.80
2019-01-13T20:47:27.934Z,2.58
2019-01-13T20:50:16.073Z,2.17
2019-01-13T20:52:57.692Z,2.12
2019-01-13T20:55:45.742Z,3.75
2019-01-13T20:58:27.553Z,5.00
2019-01-13T21:01:15.623Z,4.22
2019-01-13T21:03:57.698Z,3.58
2019-01-13T21:06:45.768Z,4.55
2019-01-13T21:09:27.654Z,2.70
2019-01-13T21:12:15.621Z,4.03
2019-01-13T21:14:57.053Z,3.83
2019-01-13T21:17:45.105Z,2.08
2019-01-13T21:20:27.082Z,2.10
2019-01-13T21:23:15.076Z,2.45
2019-01-13T21:25:56.656Z,2.27
2019-01-13T21:28:44.720Z,2.90
2019-01-13T21:31:26.422Z,2.40
2019-01-13T21:34:14.481Z,2.75
2019-01-13T21:36:55.868Z,2.22
2019-01-13T21:39:44.009Z,2.30
2019-01-13T21:42:26.039Z,3.00
2019-01-13T21:45:15.613Z,2.62
2019-01-13T21:47:57.416Z,2.40
2019-01-13T21:50:45.522Z,3.95
2019-01-13T21:53:27.485Z,4.58
2019-01-13T21:56:08.726Z,5.47
2019-01-13T21:58:56.782Z,2.42
2019-01-13T22:01:25.644Z,2.20
2019-01-13T22:04:13.658Z,2.50
2019-01-13T22:06:55.442Z,2.77
2019-01-13T22:09:43.557Z,2.20
2019-01-13T22:12:31.590Z,4.90
2019-01-13T22:15:20.236Z,2.58
2019-01-13T22:18:01.868Z,4.33
2019-01-13T22:20:49.932Z,3.02
2019-01-13T22:23:31.904Z,2.62
2019-01-13T22:26:19.918Z,5.12
2019-01-13T22:29:01.669Z,4.20
2019-01-13T22:31:49.600Z,3.42
2019-01-13T22:34:31.050Z,8.13
2019-01-13T22:37:19.076Z,4.15
2019-01-13T22:40:00.873Z,3.60
2019-01-13T22:42:48.876Z,4.30
2019-01-13T22:45:36.851Z,4.30
2019-01-13T22:48:18.726Z,10.75
2019-01-13T22:51:06.943Z,2.37
2019-01-13T22:53:49.060Z,2.58
2019-01-13T22:56:30.978Z,5.70
2019-01-13T22:59:19.117Z,3.17
2019-01-13T23:02:01.193Z,3.72
2019-01-13T23:04:49.204Z,2.47
2019-01-13T23:07:30.583Z,2.65
2019-01-13T23:10:18.680Z,2.37
2019-01-13T23:13:00.570Z,6.70
2019-01-13T23:15:48.552Z,2.67
2019-01-13T23:18:30.761Z,3.15
2019-01-13T23:21:18.792Z,2.50
2019-01-13T23:24:00.628Z,3.10
2019-01-13T23:26:48.661Z,3.17
2019-01-13T23:29:30.339Z,6.00
2019-01-13T23:32:18.390Z,2.52
2019-01-13T23:35:00.403Z,2.12
2019-01-13T23:37:48.462Z,1.90
2019-01-13T23:40:29.659Z,2.35
2019-01-13T23:43:17.700Z,2.10
2019-01-13T23:45:59.674Z,4.10
2019-01-13T23:48:47.707Z,1.57
2019-01-13T23:51:29.670Z,4.08
2019-01-13T23:54:17.745Z,2.00
2019-01-13T23:57:05.758Z,2.20
2019-01-13T23:59:53.810Z,5.67
